Latest Coastal Weather Observations for Esperance

IDW60701

Issued at 2:13 am WST Thursday 8 December 2016 (issued every 10 minutes, with the page automatically refreshed every 10 minutes)

About coastal observations | Map of coastal stations | Coastal observations for WA | Marine services | Other Formats
Station Details ID: 009789 Name: ESPERANCE Lat: -33.83 Lon: 121.89 Height: 25.0 m
Data from the previous 72 hours. | See also: Recent months at Esperance
Date/Time
WST
Temp
°C
Wind Pressure Rain since
9am
mm
Weather Cloud Vis
km
Sea
Height
m
Swell
Dir  Spd
kts
Gust
kts
hPa Trend Height
m
Period
s
Dir
08/02:00am 15.5 SSE 11 17 1019.9 - 0.0 - Cloudy - - - - -
08/01:30am 15.3 S 8 10 1020.0 - 0.0 - Cloudy - - - - -
08/01:00am 15.3 SSW 9 15 1020.0 - 0.0 - Cloudy - - - - -
08/12:30am 15.6 S 11 17 1020.0 - 0.0 - Partly cloudy - - - - -
08/12:00am 15.6 S 11 18 1020.1 R 0.0 - Cloudy - - - - -
 
Date/Time
WST
Temp
°C
Wind Pressure Rain since
9am
mm
Weather Cloud Vis
km
Sea
Height
m
Swell
Dir  Spd
kts
Gust
kts
hPa Trend Height
m
Period
s
Dir
07/11:30pm 15.8 SSW 10 15 1020.2 - 0.0 - Partly cloudy - - - - -
07/11:00pm 15.8 S 8 12 1020.3 - 0.0 - Partly cloudy - - - - -
07/10:30pm 15.5 SSW 9 16 1020.3 - 0.0 - Partly cloudy - - - - -
07/10:00pm 15.6 SSW 10 17 1020.4 - 0.0 - Partly cloudy - - - - -
07/09:30pm 16.0 S 13 18 1020.4 - 0.0 - Partly cloudy - - - - -
07/09:00pm 15.7 SSW 12 19 1020.2 R 0.0 - Cloudy - - - - -
07/08:30pm 16.0 SSW 10 15 1019.9 - 0.0 - Partly cloudy - - - - -
07/08:00pm 16.0 SSW 11 18 1019.5 - 0.0 - Partly cloudy - - - - -
07/07:30pm 15.8 SSW 11 19 1019.2 - 0.0 - Partly cloudy - - - - -
07/07:00pm 15.9 SSW 12 19 1018.9 - 0.0 - Partly cloudy - - - - -
07/06:30pm 16.2 SSW 13 19 1018.4 - 0.0 - Partly cloudy - - - - -
07/06:00pm 16.4 SSW 13 20 1018.0 R 0.0 - Cloudy - - - - -
07/05:30pm 16.9 SW 13 20 1017.4 - 0.0 - Partly cloudy - - - - -
07/05:00pm 17.0 SSW 14 21 1017.0 - 0.0 - Partly cloudy - - - - -
07/04:32pm 18.1 SSW 15 25 1016.8 - 0.0 - Partly cloudy - - - - -
07/04:30pm 17.9 SSW 16 25 1016.7 - 0.0 - Partly cloudy - - - - -
07/04:14pm 17.3 SSW 15 25 1016.6 - 0.0 - Partly cloudy - - - - -
07/04:00pm 18.2 SW 13 20 1016.5 - 0.0 - Partly cloudy - - - - -
07/03:32pm 18.1 SSW 18 28 1016.2 - 0.0 - Partly cloudy - - - - -
07/03:30pm 18.2 SSW 19 28 1016.1 - 0.0 - Partly cloudy - - - - -
07/03:00pm 18.0 SSW 16 27 1015.8 R 0.0 - Cloudy - - - - -
07/02:31pm 17.8 SW 17 27 1015.5 - 0.0 - Partly cloudy - - - - -
07/02:30pm 17.6 SW 18 27 1015.5 - 0.0 - Partly cloudy 10 - - - -
07/02:07pm 19.9 SSW 16 26 1015.3 - 0.0 - Partly cloudy 10 - - - -
07/02:00pm 18.9 SSW 15 23 1015.1 - 0.0 - Mostly clear 10 - - - -
07/01:31pm 19.0 SW 17 29 1014.9 - 0.0 - Mostly clear 10 - - - -
07/01:30pm 19.9 SW 17 26 1015.0 - 0.0 - Mostly clear 10 - - - -
07/01:00pm 19.5 SW 16 28 1014.6 - 0.0 - Mostly clear 10 - - - -
07/12:30pm 19.5 SW 20 37 1013.9 - 0.0 - Mostly clear 10 - - - -
07/12:00pm 18.6 WSW 21 33 1014.0 R 0.0 - Partly cloudy 10 - - - -
07/11:30am 18.6 SW 22 33 1013.5 - 0.0 - Partly cloudy 10 - - - -
07/11:00am 18.4 SSW 19 32 1013.5 - 0.0 - Partly cloudy 10 - - - -
07/10:30am 19.1 SW 20 30 1013.0 - 0.0 - Partly cloudy 10 - - - -
07/10:00am 18.6 SW 20 30 1012.9 - 0.0 - Mostly clear 10 - - - -
07/09:30am 16.7 WSW 19 31 1012.5 - 0.0 - Mostly clear 10 - - - -
07/09:18am 19.6 WSW 17 32 1012.1 - 0.0 - Mostly clear 10 - - - -
07/09:00am 20.6 WSW 17 26 1011.5 R - Fine Mostly clear 10 - - - -
07/08:34am 20.5 WSW 15 25 1011.2 - - - Mostly clear 10 - - - -
07/08:30am 20.2 W 12 21 1011.1 - - - Mostly clear 10 - - - -
07/08:00am 19.8 WSW 13 21 1010.7 - - - Mostly clear 10 - - - -
07/07:30am 18.7 WSW 12 22 1010.7 - - - Mostly cloudy 10 - - - -
07/07:00am 18.6 WSW 11 16 1010.5 - - - Mostly clear 10 - - - -
07/06:30am 18.2 WSW 8 15 1010.3 - - - Partly cloudy - - - - -
07/06:00am 16.9 W 5 7 1010.1 F - - - - - - - -
07/05:30am 16.0 SW 5 8 1010.1 - - - - - - - - -
07/05:00am 15.3 SW 5 7 1010.0 - - - - 10 - - - -
07/04:30am 15.3 SSW 6 7 1009.8 - - - - 10 - - - -
07/04:00am 15.4 SSW 6 9 1009.7 - - - - 10 - - - -
07/03:30am 15.4 SSW 6 9 1009.6 - - - - 10 - - - -
07/03:00am 15.3 SSW 6 8 1009.5 F 0.0 - Mostly cloudy 10 - - - -
07/02:30am 15.2 SSW 5 6 1009.5 - - - Partly cloudy 10 - - - -
07/02:00am 15.8 SSW 4 5 1009.5 - - - Partly cloudy 10 - - - -
07/01:30am 16.4 SE 4 5 1009.6 - - - - 10 - - - -
07/01:00am 16.6 SE 5 7 1009.8 - - - - 10 - - - -
07/12:30am 16.6 SE 6 8 1010.1 - - - - 10 - - - -
07/12:00am 16.6 SE 6 8 1010.3 F - - - 10 - - - -
 
Date/Time
WST
Temp
°C
Wind Pressure Rain since
9am
mm
Weather Cloud Vis
km
Sea
Height
m
Swell
Dir  Spd
kts
Gust
kts
hPa Trend Height
m
Period
s
Dir
06/11:30pm 16.5 SE 5 8 1010.7 - - - - 10 - - - -
06/11:00pm 16.4 SE 5 6 1011.1 - - - - - - - - -
06/10:30pm 16.6 SE 4 5 1011.4 - - - - 10 - - - -
06/10:00pm 16.9 ESE 5 7 1011.6 - - - - - - - - -
06/09:30pm 17.2 ESE 8 11 1011.8 - - - - - - - - -
06/09:00pm 17.1 ESE 7 9 1011.9 F 0.0 - - - - - - -
06/08:30pm 17.4 ESE 9 12 1012.1 - - - - - - - - -
06/08:00pm 17.5 ESE 7 11 1012.1 - - - - - - - - -
06/07:30pm 17.8 ESE 8 11 1011.9 - - - - - - - - -
06/07:00pm 18.0 ESE 9 13 1011.9 - - - - - - - - -
06/06:30pm 18.5 ESE 12 15 1012.0 - - - - - - - - -
06/06:00pm 19.3 ESE 11 15 1012.0 F - - - - - - - -
06/05:30pm 20.0 SE 12 17 1011.7 - - - - - - - - -
06/05:00pm 19.7 SE 13 18 1011.5 - - - - - - - - -
06/04:30pm 19.3 SE 15 21 1011.6 - - - - - - - - -
06/04:00pm 19.4 SSE 15 19 1011.5 - - - - - - - - -
06/03:30pm 19.5 SE 14 18 1011.6 - - - - - - - - -
06/03:00pm 20.2 SSE 13 19 1012.0 F - - - - - - - -
06/02:30pm 21.0 SSE 14 19 1012.2 - - - - 10 - - - -
06/02:00pm 20.8 SSE 12 16 1012.7 - - - - - - - - -
06/01:30pm 19.8 SE 15 19 1013.0 - 0.0 - - 10 - - - -
06/01:00pm 21.9 SSE 13 17 1013.2 - 0.0 - - 10 - - - -
06/12:30pm 22.1 SSE 13 15 1013.7 - 0.0 - - 10 - - - -
06/12:00pm 22.4 S 10 14 1014.1 F 0.0 - - 10 - - - -
06/11:30am 21.3 SSE 12 15 1014.6 - 0.0 - - 10 - - - -
06/11:00am 20.1 SE 11 15 1015.3 - 0.0 - - 10 - - - -
06/10:30am 20.2 SE 11 14 1015.8 - 0.0 - - 10 - - - -
06/10:00am 20.6 SE 10 13 1016.2 - 0.0 - Mostly clear 10 - - - -
06/09:30am 20.4 SSE 9 12 1016.6 - 0.0 - - 10 - - - -
06/09:00am 20.4 SSE 9 11 1017.0 F 0.0 - - 10 - - - -
06/08:30am 20.1 NW 5 7 1017.3 - 0.0 - - 10 - - - -
06/08:00am 20.0 S 5 8 1017.3 - 0.0 - - 10 - - - -
06/07:30am 18.5 WNW 4 5 1017.4 - 0.0 - - 10 - - - -
06/07:00am 17.4 WNW 4 6 1017.4 - 0.0 - - 10 - - - -
06/06:30am 15.9 NNW 4 5 1017.5 - 0.0 - - - - - - -
06/06:00am 13.6 NNW 4 6 1017.0 F 0.0 - - - - - - -
06/05:30am 12.3 CALM 0 0 1017.0 - 0.0 - - - - - - -
06/05:00am 11.5 N 4 4 1016.8 - 0.0 - - 10 - - - -
06/04:30am 11.4 NNW 4 5 1016.7 - 0.0 - - 10 - - - -
06/04:00am 11.6 N 4 6 1016.6 - 0.0 - - 10 - - - -
06/03:30am 11.9 N 5 5 1016.3 - 0.0 - - 10 - - - -
06/03:00am 12.6 NNW 5 5 1016.2 R 0.0 - - 10 - - - -
06/02:30am 12.1 WNW 5 7 1016.5 - 0.0 - Partly cloudy 10 - - - -
06/02:00am 12.1 W 5 5 1016.5 - 0.0 - Partly cloudy 10 - - - -
06/01:30am 12.0 W 6 7 1016.2 - 0.0 - - 10 - - - -
06/01:00am 12.6 WSW 5 7 1016.1 - 0.0 - - 10 - - - -
06/12:30am 12.9 WNW 5 6 1016.2 - 0.0 - - 10 - - - -
06/12:00am 13.4 W 5 5 1016.3 R 0.0 - - - - - - -
 
Date/Time
WST
Temp
°C
Wind Pressure Rain since
9am
mm
Weather Cloud Vis
km
Sea
Height
m
Swell
Dir  Spd
kts
Gust
kts
hPa Trend Height
m
Period
s
Dir
05/11:30pm 13.7 W 5 6 1016.4 - 0.0 - - - - - - -
05/11:00pm 13.7 N 4 6 1016.1 - 0.0 - - - - - - -
05/10:30pm 14.0 NNE 5 6 1016.0 - 0.0 - - - - - - -
05/10:00pm 14.9 NNE 3 5 1016.1 - 0.0 - - - - - - -
05/09:30pm 15.3 NNE 4 5 1016.1 - 0.0 - - - - - - -
05/09:00pm 15.3 NE 4 5 1016.0 R 0.0 - - - - - - -
05/08:30pm 16.1 ENE 5 7 1015.8 - 0.0 - - - - - - -
05/08:00pm 16.9 ESE 6 9 1015.6 - 0.0 - - - - - - -
05/07:30pm 17.4 SE 9 13 1015.4 - 0.0 - - - - - - -
05/07:00pm 17.5 SE 10 13 1015.1 - 0.0 - - - - - - -
05/06:30pm 17.8 SSE 11 16 1014.8 - 0.0 - - - - - - -
05/06:00pm 18.1 SE 12 17 1014.3 R 0.0 - - - - - - -
05/05:30pm 18.7 SE 12 15 1013.7 - 0.0 - - - - - - -
05/05:00pm 18.8 SE 13 17 1013.0 - 0.0 - - - - - - -
05/04:30pm 19.3 SSE 14 19 1012.9 - 0.0 - - - - - - -
05/04:00pm 19.2 SSE 13 17 1013.2 - 0.0 - - - - - - -
05/03:30pm 19.6 SSE 15 19 1012.8 - 0.0 - - - - - - -
05/03:00pm 18.7 SSE 17 22 1012.6 R 0.0 - - - - - - -
05/02:30pm 19.8 SSE 18 23 1012.7 - 0.0 - Mostly clear 10 - - - -
05/02:00pm 19.3 SSE 15 21 1012.6 - 0.0 - Mostly clear 10 - - - -
05/01:30pm 18.9 SSE 16 21 1012.5 - 0.0 - Mostly clear 10 - - - -
05/01:00pm 19.8 SSE 15 20 1012.8 - 0.0 - Mostly clear 10 - - - -
05/12:30pm 19.6 SSE 14 19 1013.1 - 0.0 - Mostly clear 10 - - - -
05/12:00pm 19.1 SSE 13 17 1013.3 F 0.0 - Mostly clear 10 - - - -
05/11:30am 19.2 SSE 13 17 1013.1 - 0.0 - - 10 - - - -
05/11:00am 20.0 SSE 10 12 1013.4 - 0.0 - - 10 - - - -
05/10:30am 19.6 SSE 7 9 1013.7 - 0.0 - - - - - - -
05/10:00am 19.9 SE 8 11 1014.1 - 0.0 - - 10 - - - -
05/09:30am 19.5 SE 8 12 1014.5 - 0.0 - - 10 - - - -
05/09:00am 19.6 ENE 5 8 1014.7 F 0.0 - Mostly clear 10 - - - -
05/08:30am 18.6 NNE 6 9 1015.1 - 0.0 - Mostly clear 10 - - - -
05/08:00am 18.0 NE 6 8 1015.4 - 0.0 - Mostly clear 10 - - - -
05/07:30am 17.6 N 7 9 1015.9 - 0.0 - Mostly clear 10 - - - -
05/07:00am 16.0 NNE 6 8 1016.1 - 0.0 - Partly cloudy 10 - - - -
05/06:30am 14.8 NNW 3 4 1016.0 - 0.0 - Cloudy - - - - -
05/06:00am 14.3 NNW 5 7 1015.9 R 0.0 - Cloudy - - - - -
05/05:30am 13.5 NNW 3 4 1015.9 - 0.0 - Cloudy - - - - -
05/05:00am 13.0 NNW 4 5 1015.6 - 0.0 - Cloudy 10 - - - -
05/04:30am 12.7 N 6 7 1015.4 - 0.0 - Cloudy 10 - - - -
05/04:00am 12.4 N 6 8 1015.2 - 0.0 - Cloudy 10 - - - -
05/03:30am 11.9 N 7 9 1014.8 - 0.0 - Partly cloudy 10 - - - -
05/03:00am 11.8 N 7 9 1014.5 R 0.0 - Mostly cloudy 10 - - - -
05/02:30am 11.4 N 7 9 1014.3 - 0.0 - Partly cloudy 10 - - - -

Other Formats:

Comma delimited format used in spreadsheet applications
http://www.bom.gov.au/fwo/IDW60701/IDW60701.94638.axf

JavaScript Object Notation format (JSON) in row-major order
http://www.bom.gov.au/fwo/IDW60701/IDW60701.94638.json